Deersville, Ohio
Current Conditions -  °F | °C
As of 5:53 AM on Monday 20 Oct 2014 (Local Time) from KPHD Reporting Station
Few Clouds Few Clouds  
Wind Chill: 41°   Ceiling: Unl
Heat Index: 44°   Visibility: 10mi
Dew Point: 39°   Wind: 6mph
Humidity: 82%   Direction: 140°SE
Pressure: 30.01"   Gusts: NA
Location:  40.31°N, 81.19°W
Report Text: KPHD 200953Z AUTO 14005KT 10SM FEW120 07/04 A3001 RMK AO2 SLP166 T00670039
Loading
Personal Weather Stations






























Interactive Weather Map
Tropical Storm Tracking
New forecast layout! Learn more

10-Day Weather Forecast

Advertisements
Track Severe Weather on mobile